Airfield :
LOGIN :

Register | Disclaimer

   EN    FR    IT 

 










Legend :    VFR   Marginal VFR   IFR   Intensive IFR   Very Intensive IFR
Visi :
Ceiling :
>= 8 km
>= 3000ft
5 to 8 km
1000 to 3000 ft
1500m to 5 km
500 to 1000 ft
800 to 1500m
200 to 500 ft
< 800m
< 200 ft
Symbols :   Thunderstorms  Fog  Heavy snow  Heavy precipitations  Wind > 20 kt
SIGMETs :     Misc.  Thunderstorms  Icing  Turbulence  Mountain Waves  Volcanic Ashes







- Airport Elevation : 443 ft
- IATA code : GNA


UMMG - Grodno

CURRENT METAR :
  • 170400Z 26004G07MPS 9999 FEW030 BKN200 08/05 Q1007 NOSIG

EXPIRED METARs :
  • 170300Z 26005G08MPS 9999 FEW030 09/05 Q1007 NOSIG

TAF TAF UMMG
Valid from the 17 at 03:00 until the 17 at 12:00 UTC


170200Z 1703/1712 26005G10MPS 8000 BKN015
TEMPO 1703/1712 28007G12MPS 3000 -SHRA BKN010CB
No reported NOTAMs for that airfield.



MET'MAP, your aeronautical weather chart ! - Copyright ORBIFLY December 2007 - Disclaimer

ORBIFLY MET'MAP TEAM :

Programming & Development : Alexandra Zaïnal
Concept & Development : Baudouin d'Aumeries
Co-Development & Prog : Marc-Olivier Méhu
Technical & hardware support : Manuel Goepfert

Contact : metmap@orbifly.com




SOURCES & CREDITS :

   NOAA